createdAt,value
2023-03-03T00:01:06.775Z,101.80
2023-03-03T00:03:36.234Z,104.53
2023-03-03T00:06:05.224Z,102.27
2023-03-03T00:08:33.504Z,103.00
2023-03-03T00:11:03.290Z,104.30
2023-03-03T00:13:32.921Z,103.60
2023-03-03T00:16:15.715Z,105.00
2023-03-03T00:18:47.433Z,100.30
2023-03-03T00:21:34.600Z,100.17
2023-03-03T00:24:23.286Z,101.40
2023-03-03T00:26:52.554Z,99.23
2023-03-03T00:29:36.708Z,99.70
2023-03-03T00:32:24.821Z,98.47
2023-03-03T00:34:55.877Z,101.03
2023-03-03T00:37:32.898Z,101.90
2023-03-03T00:40:24.887Z,105.77
2023-03-03T00:42:55.347Z,107.70
2023-03-03T00:45:32.242Z,103.97
2023-03-03T00:48:09.184Z,100.57
2023-03-03T00:50:44.332Z,96.27
2023-03-03T00:53:14.768Z,99.90
2023-03-03T00:55:42.840Z,97.50
2023-03-03T00:58:11.277Z,94.03
2023-03-03T01:00:41.024Z,96.70
2023-03-03T01:03:12.113Z,93.30
2023-03-03T01:05:41.725Z,96.13
2023-03-03T01:08:10.158Z,94.97
2023-03-03T01:10:42.162Z,94.90
2023-03-03T01:13:11.243Z,94.47
2023-03-03T01:15:40.201Z,95.53
2023-03-03T01:18:08.875Z,90.93
2023-03-03T01:20:37.031Z,94.50
2023-03-03T01:23:06.849Z,91.43
2023-03-03T01:25:35.069Z,93.67
2023-03-03T01:28:03.223Z,95.57
2023-03-03T01:30:31.699Z,95.87
2023-03-03T01:32:59.955Z,92.33
2023-03-03T01:35:29.979Z,91.97
2023-03-03T01:37:59.308Z,93.07
2023-03-03T01:40:30.744Z,96.20
2023-03-03T01:43:00.504Z,95.30
2023-03-03T01:45:30.030Z,94.83
2023-03-03T01:48:02.601Z,93.27
2023-03-03T01:50:39.044Z,91.07
2023-03-03T01:53:14.604Z,88.60
2023-03-03T01:55:46.438Z,89.60
2023-03-03T01:58:20.051Z,88.57
2023-03-03T02:00:52.452Z,82.03
2023-03-03T02:03:23.619Z,84.30
2023-03-03T02:05:55.738Z,85.23
2023-03-03T02:08:29.832Z,83.50
2023-03-03T02:10:59.629Z,82.70
2023-03-03T02:13:27.782Z,79.70
2023-03-03T02:15:56.726Z,76.53
2023-03-03T02:18:25.116Z,78.97
2023-03-03T02:21:04.027Z,78.43
2023-03-03T02:23:39.649Z,76.30
2023-03-03T02:26:11.384Z,72.23
2023-03-03T02:28:40.626Z,73.20
2023-03-03T02:31:13.301Z,72.27
2023-03-03T02:33:42.542Z,72.43
2023-03-03T02:36:14.542Z,75.07
2023-03-03T02:38:47.158Z,76.80
2023-03-03T02:41:26.090Z,72.23
2023-03-03T02:43:59.574Z,73.57
2023-03-03T02:46:27.702Z,66.63
2023-03-03T02:48:55.750Z,68.47
2023-03-03T02:51:23.850Z,66.70
2023-03-03T02:53:51.893Z,66.60
2023-03-03T02:56:21.359Z,62.33
2023-03-03T02:58:49.502Z,65.87
2023-03-03T03:01:17.891Z,67.13
2023-03-03T03:03:46.466Z,65.80
2023-03-03T03:06:14.972Z,69.17
2023-03-03T03:08:43.131Z,72.20
2023-03-03T03:11:11.319Z,77.33
2023-03-03T03:13:40.762Z,74.50
2023-03-03T03:16:09.406Z,76.07
2023-03-03T03:18:37.530Z,77.27
2023-03-03T03:21:10.386Z,76.53
2023-03-03T03:23:38.584Z,77.17
2023-03-03T03:26:07.619Z,73.73
2023-03-03T03:28:36.206Z,73.07
2023-03-03T03:31:07.261Z,67.43
2023-03-03T03:33:36.166Z,67.13
2023-03-03T03:36:06.281Z,64.23
2023-03-03T03:38:36.679Z,65.77
2023-03-03T03:41:06.318Z,68.03
2023-03-03T03:43:34.732Z,65.50
2023-03-03T03:46:02.708Z,67.47
2023-03-03T03:48:32.349Z,69.77
2023-03-03T03:51:00.484Z,69.50
2023-03-03T03:53:28.582Z,70.03
2023-03-03T03:55:56.702Z,72.67
2023-03-03T03:58:24.862Z,74.77
2023-03-03T04:00:52.985Z,75.77
2023-03-03T04:03:21.162Z,73.67
2023-03-03T04:05:53.994Z,74.97
2023-03-03T04:08:22.138Z,75.30
2023-03-03T04:10:50.157Z,71.30
2023-03-03T04:13:18.341Z,74.27
2023-03-03T04:15:46.466Z,71.80
2023-03-03T04:18:14.474Z,72.40
2023-03-03T04:20:42.677Z,71.83
2023-03-03T04:23:12.883Z,70.63
2023-03-03T04:25:40.970Z,70.07
2023-03-03T04:28:10.662Z,72.40
2023-03-03T04:30:38.873Z,70.53
2023-03-03T04:33:06.932Z,73.10
2023-03-03T04:35:35.012Z,74.50
2023-03-03T04:38:03.091Z,74.47
2023-03-03T04:40:32.572Z,72.37
2023-03-03T04:43:00.733Z,73.77
2023-03-03T04:45:28.805Z,73.43
2023-03-03T04:47:56.971Z,75.43
2023-03-03T04:50:25.094Z,77.67
2023-03-03T04:52:53.213Z,74.37
2023-03-03T04:55:21.592Z,74.00
2023-03-03T04:57:51.026Z,74.70
2023-03-03T05:00:19.894Z,75.80
2023-03-03T05:02:49.828Z,75.53
2023-03-03T05:05:17.984Z,72.77
2023-03-03T05:07:46.193Z,72.70
2023-03-03T05:10:14.558Z,67.60
2023-03-03T05:12:42.667Z,65.60
2023-03-03T05:15:12.662Z,66.07
2023-03-03T05:17:41.144Z,66.50
2023-03-03T05:20:10.952Z,64.27
2023-03-03T05:22:38.987Z,65.30
2023-03-03T05:25:09.202Z,65.90
2023-03-03T05:27:37.305Z,65.93
2023-03-03T05:30:06.299Z,64.90
2023-03-03T05:32:36.587Z,66.00
2023-03-03T05:35:05.694Z,68.80
2023-03-03T05:37:33.792Z,65.57
2023-03-03T05:40:01.891Z,67.40
2023-03-03T05:42:30.027Z,68.30
2023-03-03T05:44:58.169Z,67.77
2023-03-03T05:47:26.276Z,68.93
2023-03-03T05:49:55.705Z,66.37
2023-03-03T05:52:24.655Z,68.20
2023-03-03T05:54:52.823Z,69.47
2023-03-03T05:57:20.955Z,70.73
2023-03-03T05:59:49.068Z,66.70
2023-03-03T06:02:17.163Z,65.80
2023-03-03T06:04:45.240Z,66.77
2023-03-03T06:07:14.651Z,65.50
2023-03-03T06:09:42.866Z,68.10
2023-03-03T06:12:10.906Z,65.50
2023-03-03T06:14:38.952Z,66.60
2023-03-03T06:17:07.249Z,68.77
2023-03-03T06:19:35.314Z,72.83
2023-03-03T06:22:03.472Z,68.13
2023-03-03T06:24:32.929Z,71.83
2023-03-03T06:27:01.758Z,73.83
2023-03-03T06:29:30.049Z,66.37
2023-03-03T06:31:58.408Z,66.93
2023-03-03T06:34:26.818Z,65.47
2023-03-03T06:36:54.885Z,67.60
2023-03-03T06:39:22.940Z,69.20
2023-03-03T06:41:54.653Z,68.07
2023-03-03T06:44:22.704Z,66.67
2023-03-03T06:46:50.878Z,65.43
2023-03-03T06:49:19.020Z,66.67
2023-03-03T06:51:48.360Z,64.70
2023-03-03T06:54:18.762Z,67.67
2023-03-03T06:56:48.446Z,67.80
2023-03-03T06:59:19.705Z,68.00
2023-03-03T07:01:49.229Z,67.30
2023-03-03T07:04:25.733Z,64.60
2023-03-03T07:06:53.979Z,65.87
2023-03-03T07:09:24.433Z,66.63
2023-03-03T07:11:53.278Z,70.00
2023-03-03T07:14:22.769Z,70.63
2023-03-03T07:16:57.576Z,69.53
2023-03-03T07:19:33.596Z,65.20
2023-03-03T07:22:07.703Z,70.90
2023-03-03T07:24:35.936Z,69.60
2023-03-03T07:27:12.493Z,64.07
2023-03-03T07:29:42.237Z,66.50
2023-03-03T07:32:27.342Z,72.27
2023-03-03T07:34:57.538Z,76.23
2023-03-03T07:37:32.752Z,72.20
2023-03-03T07:40:02.120Z,70.43
2023-03-03T07:42:38.991Z,77.30
2023-03-03T07:45:26.214Z,70.23
2023-03-03T07:48:01.661Z,73.30
2023-03-03T07:50:29.716Z,74.50
2023-03-03T07:53:00.629Z,75.63
2023-03-03T07:55:35.413Z,71.70
2023-03-03T07:58:21.979Z,70.53
2023-03-03T08:01:29.301Z,68.80
2023-03-03T08:03:59.121Z,69.43
2023-03-03T08:06:40.508Z,66.60
2023-03-03T08:09:41.550Z,69.90
2023-03-03T08:12:29.398Z,65.33
2023-03-03T08:14:59.165Z,64.97
2023-03-03T08:17:36.631Z,71.37
2023-03-03T08:20:25.262Z,66.67
2023-03-03T08:22:53.368Z,63.77
2023-03-03T08:25:21.487Z,63.63
2023-03-03T08:27:50.603Z,63.53
2023-03-03T08:30:19.007Z,60.30
2023-03-03T08:32:47.133Z,68.07
2023-03-03T08:35:16.776Z,64.70
2023-03-03T08:37:44.865Z,61.70
2023-03-03T08:40:13.395Z,55.30
2023-03-03T08:42:41.583Z,52.10
2023-03-03T08:45:09.900Z,50.47
2023-03-03T08:47:38.357Z,48.43
2023-03-03T08:50:07.053Z,50.17
2023-03-03T08:52:36.606Z,52.63
2023-03-03T08:55:04.746Z,50.10
2023-03-03T08:57:32.933Z,49.40
2023-03-03T09:00:02.042Z,47.67
2023-03-03T09:02:30.137Z,49.27
2023-03-03T09:04:58.186Z,48.60
2023-03-03T09:07:26.297Z,47.90
2023-03-03T09:09:55.779Z,47.00
2023-03-03T09:12:29.747Z,48.03
2023-03-03T09:14:59.619Z,42.53
2023-03-03T09:17:31.320Z,40.87
2023-03-03T09:20:03.841Z,37.87
2023-03-03T09:22:39.153Z,38.80
2023-03-03T09:25:20.736Z,34.67
2023-03-03T09:27:48.927Z,33.70
2023-03-03T09:30:36.661Z,30.97
2023-03-03T09:33:28.865Z,28.93
2023-03-03T09:36:06.912Z,29.20
2023-03-03T09:38:40.996Z,29.20
2023-03-03T09:41:33.604Z,28.63
2023-03-03T09:44:37.878Z,28.10
2023-03-03T09:47:22.366Z,26.27
2023-03-03T09:50:03.683Z,26.87
2023-03-03T09:52:41.493Z,26.00
2023-03-03T09:55:25.237Z,24.57
2023-03-03T09:58:11.285Z,24.07
2023-03-03T10:00:56.297Z,24.23
2023-03-03T10:03:46.478Z,25.20
2023-03-03T10:06:23.058Z,23.27
2023-03-03T10:09:04.126Z,22.70
2023-03-03T10:11:41.740Z,22.27
2023-03-03T10:14:47.352Z,20.97
2023-03-03T10:17:34.999Z,20.50
2023-03-03T10:20:18.567Z,20.40
2023-03-03T10:22:53.700Z,19.10
2023-03-03T10:25:31.934Z,19.70
2023-03-03T10:28:44.592Z,19.53
2023-03-03T10:31:28.299Z,20.00
2023-03-03T10:34:05.354Z,19.83
2023-03-03T10:36:47.265Z,20.67
2023-03-03T10:39:26.454Z,20.00
2023-03-03T10:42:10.009Z,20.00
2023-03-03T10:44:54.343Z,20.40
2023-03-03T10:47:59.248Z,20.67
2023-03-03T10:50:35.292Z,19.53
2023-03-03T10:53:18.271Z,20.33
2023-03-03T10:55:53.490Z,19.10
2023-03-03T10:58:34.473Z,19.27
2023-03-03T11:01:12.901Z,18.60
2023-03-03T11:04:21.236Z,18.20
2023-03-03T11:06:55.457Z,18.50
2023-03-03T11:09:45.706Z,18.80
2023-03-03T11:12:28.097Z,18.60
2023-03-03T11:15:14.482Z,18.60
2023-03-03T11:17:58.997Z,19.10
2023-03-03T11:20:38.654Z,18.77
2023-03-03T11:23:21.405Z,19.43
2023-03-03T11:25:55.973Z,19.00
2023-03-03T11:28:39.254Z,18.43
2023-03-03T11:31:19.663Z,18.20
2023-03-03T11:33:58.293Z,18.40
2023-03-03T11:36:33.919Z,18.50
2023-03-03T11:39:05.619Z,17.37
2023-03-03T11:41:38.757Z,18.40
2023-03-03T11:44:14.902Z,17.80
2023-03-03T11:46:47.600Z,17.90
2023-03-03T11:49:22.561Z,17.90
2023-03-03T11:52:07.378Z,18.53
2023-03-03T11:54:43.787Z,17.70
2023-03-03T11:57:21.588Z,18.80
2023-03-03T12:00:01.194Z,18.20
2023-03-03T12:02:56.156Z,18.10
2023-03-03T12:05:39.412Z,17.70
2023-03-03T12:08:23.995Z,17.87
2023-03-03T12:10:59.163Z,18.03
2023-03-03T12:13:34.920Z,17.77
2023-03-03T12:16:10.141Z,17.90
2023-03-03T12:18:59.487Z,18.13
2023-03-03T12:21:40.836Z,18.97
2023-03-03T12:24:22.240Z,18.00
2023-03-03T12:26:59.736Z,18.03
2023-03-03T12:29:35.182Z,18.03
2023-03-03T12:32:14.655Z,18.23
2023-03-03T12:34:49.430Z,17.90
2023-03-03T12:37:30.772Z,17.97
2023-03-03T12:40:08.470Z,18.27
2023-03-03T12:42:50.547Z,17.63
2023-03-03T12:45:36.637Z,17.63
2023-03-03T12:48:10.886Z,17.57
2023-03-03T12:50:51.481Z,18.30
2023-03-03T12:53:33.325Z,18.00
2023-03-03T12:56:06.846Z,17.77
2023-03-03T12:58:50.482Z,18.07
2023-03-03T13:01:34.540Z,19.27
2023-03-03T13:04:11.363Z,18.00
2023-03-03T13:06:48.107Z,18.03
2023-03-03T13:09:32.549Z,18.33
2023-03-03T13:12:29.589Z,17.90
2023-03-03T13:15:03.744Z,17.73
2023-03-03T13:17:36.336Z,17.90
2023-03-03T13:20:13.050Z,18.33
2023-03-03T13:22:46.452Z,18.07
2023-03-03T13:25:36.653Z,20.10
2023-03-03T13:28:14.100Z,18.27
2023-03-03T13:30:48.716Z,17.83
2023-03-03T13:33:22.392Z,17.60
2023-03-03T13:35:55.057Z,17.43
2023-03-03T13:38:26.737Z,17.97
2023-03-03T13:41:03.338Z,18.63
2023-03-03T13:43:41.425Z,18.07
2023-03-03T13:46:16.162Z,18.13
2023-03-03T13:48:56.986Z,18.17
2023-03-03T13:51:37.343Z,17.60
2023-03-03T13:54:17.523Z,17.50
2023-03-03T13:57:08.761Z,17.93
2023-03-03T13:59:50.042Z,17.33
2023-03-03T14:02:56.456Z,17.20
2023-03-03T14:05:31.214Z,17.90
2023-03-03T14:08:04.165Z,17.60
2023-03-03T14:10:35.288Z,17.37
2023-03-03T14:13:07.758Z,18.30
2023-03-03T14:15:45.843Z,17.87
2023-03-03T14:18:25.124Z,19.93
2023-03-03T14:20:54.965Z,19.40
2023-03-03T14:23:28.613Z,18.73
2023-03-03T14:26:06.305Z,18.60
2023-03-03T14:28:40.470Z,18.30
2023-03-03T14:31:21.671Z,18.30
2023-03-03T14:34:01.207Z,19.83
2023-03-03T14:36:33.070Z,18.77
2023-03-03T14:39:01.910Z,18.57
2023-03-03T14:41:42.681Z,18.30
2023-03-03T14:44:27.860Z,18.10
2023-03-03T14:47:21.319Z,17.90
2023-03-03T14:49:50.771Z,17.70
2023-03-03T14:52:25.759Z,18.13
2023-03-03T14:54:55.339Z,18.10
2023-03-03T14:57:41.682Z,17.90
2023-03-03T15:00:29.441Z,17.77
2023-03-03T15:03:09.032Z,18.30
2023-03-03T15:05:38.088Z,19.10
2023-03-03T15:08:15.921Z,29.73
2023-03-03T15:10:46.220Z,18.40
2023-03-03T15:13:36.172Z,17.57
2023-03-03T15:16:11.810Z,17.97
2023-03-03T15:19:08.016Z,17.93
2023-03-03T15:21:41.130Z,17.80
2023-03-03T15:24:17.110Z,17.50
2023-03-03T15:26:51.476Z,17.50
2023-03-03T15:29:30.899Z,18.03
2023-03-03T15:32:05.639Z,17.83
2023-03-03T15:34:41.429Z,17.70
2023-03-03T15:37:25.630Z,18.00
2023-03-03T15:40:04.029Z,17.83
2023-03-03T15:42:39.321Z,17.97
2023-03-03T15:45:17.238Z,17.77
2023-03-03T15:48:06.423Z,17.43
2023-03-03T15:50:46.624Z,17.30
2023-03-03T15:53:28.812Z,17.33
2023-03-03T15:56:15.645Z,17.50
2023-03-03T15:59:20.185Z,17.87
2023-03-03T16:01:54.309Z,17.83
2023-03-03T16:04:26.951Z,17.77
2023-03-03T16:07:06.788Z,17.70
2023-03-03T16:09:47.635Z,17.57
2023-03-03T16:12:22.962Z,17.57
2023-03-03T16:15:08.587Z,17.37
2023-03-03T16:17:45.092Z,17.97
2023-03-03T16:20:22.242Z,17.87
2023-03-03T16:23:12.015Z,17.77
2023-03-03T16:26:10.581Z,18.03
2023-03-03T16:28:59.097Z,18.47
2023-03-03T16:31:34.663Z,18.60
2023-03-03T16:34:12.376Z,18.40
2023-03-03T16:36:55.868Z,18.47
2023-03-03T16:39:38.778Z,17.90
2023-03-03T16:42:21.409Z,17.43
2023-03-03T16:45:06.019Z,18.30
2023-03-03T16:47:51.207Z,17.37
2023-03-03T16:50:27.801Z,17.67
2023-03-03T16:53:06.711Z,17.20
2023-03-03T16:55:47.907Z,17.10
2023-03-03T16:58:31.862Z,17.50
2023-03-03T17:01:09.576Z,17.00
2023-03-03T17:03:49.949Z,16.97
2023-03-03T17:06:43.107Z,16.97
2023-03-03T17:09:39.743Z,16.37
2023-03-03T17:12:31.671Z,16.40
2023-03-03T17:15:24.839Z,16.50
2023-03-03T17:17:58.992Z,16.70
2023-03-03T17:20:38.520Z,16.60
2023-03-03T17:23:40.118Z,16.67
2023-03-03T17:26:27.219Z,16.80
2023-03-03T17:29:10.947Z,17.40
2023-03-03T17:32:08.708Z,19.23
2023-03-03T17:34:48.813Z,17.50
2023-03-03T17:37:29.131Z,17.23
2023-03-03T17:40:36.105Z,17.50
2023-03-03T17:43:08.874Z,18.00
2023-03-03T17:45:43.071Z,18.27
2023-03-03T17:48:37.764Z,19.03
2023-03-03T17:51:23.826Z,18.70
2023-03-03T17:54:12.579Z,19.03
2023-03-03T17:56:50.583Z,19.83
2023-03-03T17:59:41.497Z,18.40
2023-03-03T18:02:52.470Z,18.20
2023-03-03T18:05:46.113Z,18.73
2023-03-03T18:08:30.247Z,18.90
2023-03-03T18:11:17.083Z,19.20
2023-03-03T18:14:09.920Z,19.27
2023-03-03T18:17:02.501Z,19.20
2023-03-03T18:20:03.588Z,19.10
2023-03-03T18:22:34.182Z,19.10
2023-03-03T18:25:09.677Z,18.70
2023-03-03T18:27:39.592Z,18.60
2023-03-03T18:30:27.105Z,18.70
2023-03-03T18:33:10.150Z,18.87
2023-03-03T18:35:41.776Z,19.00
2023-03-03T18:38:37.561Z,19.30
2023-03-03T18:41:10.134Z,18.60
2023-03-03T18:43:50.360Z,19.33
2023-03-03T18:47:00.120Z,19.43
2023-03-03T18:49:52.770Z,19.10
2023-03-03T18:52:31.479Z,19.03
2023-03-03T18:55:22.041Z,18.47
2023-03-03T18:58:05.832Z,18.23
2023-03-03T19:00:46.039Z,20.13
2023-03-03T19:03:27.208Z,18.47
2023-03-03T19:05:58.002Z,18.93
2023-03-03T19:08:30.473Z,19.20
2023-03-03T19:11:01.014Z,18.13
2023-03-03T19:13:47.886Z,18.40
2023-03-03T19:16:38.005Z,18.20
2023-03-03T19:19:15.496Z,19.27
2023-03-03T19:21:48.226Z,18.03
2023-03-03T19:24:33.811Z,18.20
2023-03-03T19:27:27.759Z,18.23
2023-03-03T19:30:37.374Z,20.50
2023-03-03T19:33:19.403Z,23.90
2023-03-03T19:36:00.785Z,20.20
2023-03-03T19:38:38.283Z,19.23
2023-03-03T19:41:21.569Z,18.37
2023-03-03T19:43:58.225Z,18.60
2023-03-03T19:47:00.885Z,19.20
2023-03-03T19:49:56.981Z,19.07
2023-03-03T19:52:31.417Z,19.27
2023-03-03T19:55:19.239Z,19.83
2023-03-03T19:57:59.994Z,18.70
2023-03-03T20:00:36.175Z,19.40
2023-03-03T20:03:38.146Z,19.10
2023-03-03T20:06:19.662Z,20.00
2023-03-03T20:08:57.545Z,19.30
2023-03-03T20:11:48.044Z,17.73
2023-03-03T20:14:38.125Z,18.00
2023-03-03T20:17:29.527Z,20.10
2023-03-03T20:20:05.593Z,19.20
2023-03-03T20:22:41.562Z,36.70
2023-03-03T20:25:23.671Z,19.77
2023-03-03T20:28:01.076Z,20.30
2023-03-03T20:30:44.373Z,20.73
2023-03-03T20:33:26.126Z,21.33
2023-03-03T20:36:01.080Z,20.40
2023-03-03T20:38:37.203Z,20.50
2023-03-03T20:41:17.997Z,19.63
2023-03-03T20:43:56.723Z,19.13
2023-03-03T20:46:34.145Z,19.47
2023-03-03T20:49:19.559Z,22.30
2023-03-03T20:51:56.672Z,19.37
2023-03-03T20:54:34.182Z,20.67
2023-03-03T20:57:09.052Z,19.30
2023-03-03T20:59:42.886Z,21.23
2023-03-03T21:02:20.425Z,19.53
2023-03-03T21:05:09.740Z,18.67
2023-03-03T21:07:41.053Z,18.70
2023-03-03T21:10:15.351Z,18.80
2023-03-03T21:12:43.601Z,18.97
2023-03-03T21:15:24.360Z,19.07
2023-03-03T21:17:55.159Z,19.23
2023-03-03T21:20:30.321Z,19.17
2023-03-03T21:22:59.459Z,19.70
2023-03-03T21:25:47.422Z,19.47
2023-03-03T21:28:18.195Z,18.93
2023-03-03T21:31:07.158Z,19.33
2023-03-03T21:33:45.859Z,20.90
2023-03-03T21:36:15.735Z,19.47
2023-03-03T21:38:45.405Z,19.20
2023-03-03T21:41:14.792Z,19.27
2023-03-03T21:43:43.997Z,20.77
2023-03-03T21:46:13.389Z,18.97
2023-03-03T21:48:43.661Z,19.00
2023-03-03T21:51:14.050Z,19.10
2023-03-03T21:53:44.042Z,20.23
2023-03-03T21:56:13.914Z,19.30
2023-03-03T21:58:42.293Z,19.30
2023-03-03T22:01:10.607Z,19.50
2023-03-03T22:03:39.081Z,19.03
2023-03-03T22:06:08.903Z,19.30
2023-03-03T22:08:37.995Z,18.43
2023-03-03T22:11:06.336Z,19.07
2023-03-03T22:13:34.464Z,18.83
2023-03-03T22:16:02.586Z,19.00
2023-03-03T22:18:30.677Z,18.70
2023-03-03T22:20:58.806Z,19.20
2023-03-03T22:23:28.296Z,20.80
2023-03-03T22:25:56.358Z,19.27
2023-03-03T22:28:24.448Z,18.70
2023-03-03T22:30:52.581Z,19.10
2023-03-03T22:33:20.678Z,18.90
2023-03-03T22:35:49.365Z,18.67
2023-03-03T22:38:17.784Z,18.87
2023-03-03T22:40:47.311Z,19.23
2023-03-03T22:43:15.513Z,19.47
2023-03-03T22:45:44.695Z,19.47
2023-03-03T22:48:13.473Z,19.97
2023-03-03T22:50:43.609Z,19.33
2023-03-03T22:53:11.734Z,19.80
2023-03-03T22:55:39.752Z,20.07
2023-03-03T22:58:10.276Z,20.40
2023-03-03T23:00:39.278Z,19.57
2023-03-03T23:03:07.486Z,19.10
2023-03-03T23:05:36.703Z,19.03
2023-03-03T23:08:05.500Z,19.20
2023-03-03T23:10:33.932Z,18.67
2023-03-03T23:13:02.058Z,19.70
2023-03-03T23:15:31.881Z,18.70
2023-03-03T23:17:59.958Z,18.83
2023-03-03T23:20:30.627Z,18.77
2023-03-03T23:22:59.228Z,19.20
2023-03-03T23:25:28.741Z,20.33
2023-03-03T23:27:57.327Z,20.00
2023-03-03T23:30:25.978Z,19.20
2023-03-03T23:32:55.394Z,20.53
2023-03-03T23:35:23.550Z,19.70
2023-03-03T23:37:51.796Z,19.07
2023-03-03T23:40:20.524Z,20.43
2023-03-03T23:42:48.609Z,18.63
2023-03-03T23:45:17.298Z,20.20
2023-03-03T23:47:45.766Z,19.73
2023-03-03T23:50:15.799Z,20.53
2023-03-03T23:52:44.605Z,20.97
2023-03-03T23:55:12.786Z,19.97
2023-03-03T23:57:41.007Z,20.17
